Airport View

Enter AWOS ICAO identifier for current METAR.

ex. KFNL

KBGE 181115Z AUTO 08006KT 10SM BKN075 08/07 A3039 RMK AO2 T00820065

18 Jan 2020 11:24

Frequency: 121.125

Phone: 229-248-2104

Other Area AWOS: K17J - K2J9 - KCXU - KBIJ

TAF KTLH 180556Z 1806/1906 09010KT P6SM BKN250 FM182100 17007KT P6SM VCSH OVC050 FM190400 13006KT 4SM RA OVC015